• Join FlightAware (Why Join?)
  • Login
  • US Flag 
07:18PM EDT


 

Airport Tracker/Info


-or-


 

Live Flight TrackerFlight Track Log ✈ AAY875 ✈ 26-Apr-2014 ✈ KBGR - KPIE

Flight Track Log - Related Links

Times and Time Zones

All times are in EDT time to prevent confusion due to time zone crossing. See the AAY875 flight status page for this flight to view local times or setup timezone preferences in your user account.

Time Position Orientation Groundspeed Altitude Reporting Facility
EDT Latitude Longitude Course Direction KTS MPH feet Rate Location/Type
03:55PM 44.7667 -68.7750 223° Southwest 200 230 2,700  Level Boston Center
03:56PM 44.7150 -68.8333 219° Southwest 260 299 6,300 3,300 Climbing Boston Center
03:57PM 44.6819 -68.9250 243° Southwest 260 299 9,500 2,340 Climbing Boston Center
03:58PM 44.6436 -69.0272 242° Southwest 287 330 11,100 1,500 Climbing Boston Center
03:59PM 44.5975 -69.1489 242° Southwest 333 383 12,600 1,740 Climbing Boston Center
04:00PM 44.3135 -69.4734 223° Southwest  Level FlightAware Approximate
04:00PM 44.5356 -69.2686 234° Southwest 374 430 14,700  Level Boston Center
04:01PM 44.4633 -69.3700 225° Southwest 368 423 17,400 1,860 Climbing Boston Center
04:02PM 44.3872 -69.4725 224° Southwest 373 429 18,500 1,140 Climbing Boston Center
04:03PM 44.3058 -69.5867 225° Southwest 408 470 19,800 1,320 Climbing Boston Center
04:04PM 44.2219 -69.7022 225° Southwest 416 479 21,300 1,560 Climbing Boston Center
04:05PM 44.1386 -69.8189 225° Southwest 420 483 23,000 1,500 Climbing Boston Center
04:06PM 44.0528 -69.9344 224° Southwest 422 486 24,400 1,440 Climbing Boston Center
04:07PM 43.9681 -70.0508 225° Southwest 426 490 26,000 1,320 Climbing Boston Center
04:08PM 43.8844 -70.1653 225° Southwest 423 487 27,100 1,080 Climbing Boston Center
04:09PM 43.8003 -70.2797 224° Southwest 421 484 28,300 1,260 Climbing Boston Center
04:10PM 43.7164 -70.3922 224° Southwest 418 481 29,800 1,200 Climbing Boston Center
04:11PM 43.6342 -70.5003 224° Southwest 407 468 30,800 900 Climbing Boston Center
04:12PM 43.5528 -70.6094 224° Southwest 406 467 31,700 540 Climbing Boston Center
04:13PM 43.4714 -70.7175 224° Southwest 405 466 32,000 1,080 Climbing Boston Center
04:14PM 43.3811 -70.8375 224° Southwest 401 461 34,000 600 Climbing Boston Center
04:15PM 43.3003 -70.9469 225° Southwest 404 465 33,300 -120 Descending Boston Center
04:16PM 43.2206 -71.0503 223° Southwest 400 460 33,800 300 Climbing Boston Center
04:17PM 43.1406 -71.1586 225° Southwest 401 461 34,000 60 Climbing Boston Center
04:18PM 43.0567 -71.2719 225° Southwest 420 483 34,000  Level Boston Center
04:19PM 42.9758 -71.3808 225° Southwest 415 478 34,000  Level Boston Center
04:20PM 42.8786 -71.5122 225° Southwest 414 476 34,000  Level Boston Center
04:21PM 42.8022 -71.6147 225° Southwest 414 476 34,000  Level Boston Center
04:22PM 42.7197 -71.7236 224° Southwest 414 476 34,000  Level Boston Center
04:23PM 42.6383 -71.8331 225° Southwest 414 476 34,000  Level Boston Center
04:24PM 42.5564 -71.9403 224° Southwest 414 476 34,000  Level Boston Center
04:25PM 42.4769 -72.0464 225° Southwest 407 468 34,000  Level Boston Center
04:26PM 42.3953 -72.1517 224° Southwest 406 467 34,000  Level Boston Center
04:27PM 42.3144 -72.2575 224° Southwest 406 467 34,000  Level Boston Center
04:28PM 42.2169 -72.3844 224° Southwest 406 467 34,000  Level Boston Center
04:29PM 42.1347 -72.4906 224° Southwest 406 467 34,000  Level Boston Center
04:30PM 42.0519 -72.5953 223° Southwest 406 467 34,000  Level Boston Center
04:31PM 41.9697 -72.7028 224° Southwest 407 468 34,000  Level Boston Center
04:32PM 41.8928 -72.8156 228° Southwest 407 468 34,000  Level Boston Center
04:33PM 41.8150 -72.9294 228° Southwest 409 471 34,000 -60 Level Boston Center
04:34PM 41.7372 -73.0428 227° Southwest 409 471 33,900  Descending Boston Center
04:35PM 41.6608 -73.1556 228° Southwest 409 471 34,000  Climbing Boston Center
04:36PM 41.5828 -73.2692 227° Southwest 410 472 34,000  Level Boston Center
04:37PM 41.4972 -73.3928 227° Southwest 409 471 34,000  Level Boston Center
04:38PM 41.4208 -73.5053 228° Southwest 409 471 34,000  Level Boston Center
04:39PM 41.3436 -73.6150 227° Southwest 409 471 34,000  Level Boston Center
04:40PM 41.2669 -73.7258 227° Southwest 409 471 34,000  Level Boston Center
04:41PM 41.1900 -73.8344 227° Southwest 409 471 34,000  Level Boston Center
04:42PM 41.1147 -73.9492 229° Southwest 413 475 34,000  Level New York Center
04:43PM 41.0325 -74.0608 226° Southwest 413 475 34,000  Level New York Center
04:44PM 40.9500 -74.1778 227° Southwest 422 486 34,000 -60 Level New York Center
04:45PM 40.8783 -74.2756 226° Southwest 422 486 33,900 -60 Descending New York Center
04:46PM 40.8022 -74.3842 227° Southwest 416 479 33,900  Level New York Center
04:47PM 40.7278 -74.5008 230° Southwest 416 479 33,900  Level New York Center
04:48PM 40.6575 -74.6144 231° Southwest 416 479 33,900  Level New York Center
04:49PM 40.5867 -74.7336 232° Southwest 416 479 33,900  Level New York Center
04:50PM 40.5081 -74.8436 227° Southwest 416 479 33,900  Level New York Center
04:51PM 40.4292 -74.9561 227° Southwest 421 484 33,900  Level New York Center
04:52PM 40.3519 -75.0686 228° Southwest 427 491 33,900  Level New York Center
04:53PM 40.2753 -75.1753 227° Southwest 427 491 33,900  Level New York Center
04:54PM 40.1894 -75.2950 227° Southwest 421 484 33,900  Level New York Center
04:55PM 40.1142 -75.4042 228° Southwest 421 484 33,900  Level New York Center
04:56PM 40.0350 -75.5128 226° Southwest 421 484 33,900  Level New York Center
04:57PM 39.9553 -75.6236 227° Southwest 421 484 33,900  Level New York Center
04:58PM 39.8797 -75.7375 229° Southwest 421 484 33,900  Level New York Center
04:59PM 39.8058 -75.8539 230° Southwest 426 490 33,900  Level New York Center
05:00PM 39.7342 -75.9703 231° Southwest 426 490 33,900  Level New York Center
05:01PM 39.6622 -76.0861 231° Southwest 426 490 33,900  Level New York Center
05:03PM 39.5578 -76.2400 229° Southwest 412 474 33,900  Level Washington Center
05:04PM 39.4722 -76.3781 231° Southwest 412 474 33,900  Level Washington Center
05:05PM 39.3992 -76.4908 230° Southwest 411 473 33,900  Level Washington Center
05:06PM 39.3261 -76.6072 231° Southwest 403 464 34,000  Climbing Washington Center
05:07PM 39.2539 -76.7172 230° Southwest 401 461 34,000  Level Washington Center
05:08PM 39.1839 -76.8269 231° Southwest 398 458 34,000  Level Washington Center
05:09PM 39.1133 -76.9364 230° Southwest 398 458 34,000  Level Washington Center
05:10PM 39.0394 -77.0450 229° Southwest 399 459 34,000  Level Washington Center
05:11PM 38.9333 -77.1600 220° Southwest 410 472 34,000  Level Washington Center
05:12PM 38.8464 -77.2572 221° Southwest 411 473 34,000  Level Washington Center
05:13PM 38.7589 -77.3531 221° Southwest 411 473 34,000  Level Washington Center
05:14PM 38.6719 -77.4475 220° Southwest 410 472 34,000  Level Washington Center
05:15PM 38.5731 -77.5556 221° Southwest 416 479 34,000  Level Washington Center
05:16PM 38.4967 -77.6361 220° Southwest 404 465 34,000  Level Washington Center
05:17PM 38.4081 -77.7311 220° Southwest 407 468 34,000  Level Washington Center
05:19PM 38.3019 -77.8467 221° Southwest 415 478 34,000  Level Washington Center
05:20PM 38.2119 -77.9439 220° Southwest 419 482 34,000  Level Washington Center
05:21PM 38.1211 -78.0400 220° Southwest 420 483 34,000  Level Washington Center
05:22PM 38.0308 -78.1350 220° Southwest 421 484 34,000 -60 Level Washington Center
05:23PM 37.9275 -78.2367 218° Southwest 422 486 33,900  Descending Washington Center
05:24PM 37.8367 -78.3225 217° Southwest 420 483 34,000  Climbing Washington Center
05:25PM 37.7456 -78.4083 217° Southwest 419 482 34,000  Level Washington Center
05:26PM 37.6564 -78.4953 218° Southwest 417 480 34,000  Level Washington Center
05:27PM 37.5472 -78.6000 217° Southwest 417 480 34,000  Level Washington Center
05:28PM 37.4542 -78.6853 216° Southwest 421 484 34,000  Level Washington Center
05:29PM 37.3617 -78.7725 217° Southwest 423 487 34,000  Level Washington Center
05:30PM 37.2508 -78.8739 216° Southwest 422 486 34,000  Level Washington Center
05:31PM 37.1517 -78.9525 212° Southwest 428 493 34,000  Level Washington Center
05:32PM 37.0542 -79.0300 212° Southwest 427 491 34,000  Level Washington Center
05:33PM 36.9572 -79.1097 213° Southwest 427 491 34,000  Level Washington Center
05:34PM 36.8375 -79.2058 213° Southwest 436 502 34,000  Level Washington Center
05:35PM 36.7378 -79.2853 213° Southwest 437 503 34,000  Level Washington Center
05:36PM 36.6400 -79.3625 212° Southwest 431 496 34,000  Level Washington Center
05:37PM 36.5231 -79.4536 212° Southwest 426 490 34,000  Level Washington Center
05:38PM 36.4256 -79.5356 214° Southwest 429 494 34,000  Level Washington Center
05:39PM 36.3186 -79.6169 212° Southwest 423 487 34,000  Level Washington Center
05:40PM 36.2192 -79.6958 213° Southwest 423 487 34,000  Level Washington Center
05:41PM 36.1194 -79.7747 213° Southwest 426 490 34,000  Level Washington Center
05:42PM 36.0178 -79.8556 213° Southwest 431 496 34,000  Level Washington Center
05:43PM 35.8794 -79.9458 208° Southwest 436 502 34,000  Level Atlanta Center
05:44PM 35.7769 -80.0022 204° Southwest 447 514 34,000 480 Level Atlanta Center
05:45PM 35.6519 -80.0697 204° Southwest 453 521 35,000 900 Climbing Atlanta Center
05:46PM 35.5392 -80.1264 202° Southwest 453 521 35,800 480 Climbing Atlanta Center
05:47PM 35.4261 -80.1825 202° Southwest 448 516 36,000 60 Climbing Atlanta Center
05:48PM 35.3233 -80.2358 203° Southwest 448 516 36,000  Level Atlanta Center
05:50PM 35.0936 -80.3506 202° Southwest 448 516 36,000  Level Jacksonville Center
05:51PM 34.9800 -80.4072 202° Southwest 448 516 36,000  Level Jacksonville Center
05:52PM 34.8667 -80.4686 204° Southwest 448 516 36,000 -60 Level Jacksonville Center
05:53PM 34.7550 -80.5222 202° Southwest 448 516 35,900 -60 Descending Jacksonville Center
05:54PM 34.6372 -80.5836 203° Southwest 448 516 35,900  Level Jacksonville Center
05:55PM 34.5194 -80.6447 203° Southwest 453 521 35,900  Level Jacksonville Center
05:56PM 34.4286 -80.6900 202° Southwest 453 521 35,900  Level Jacksonville Center
05:57PM 34.2794 -80.7614 202° Southwest 459 528 36,000  Climbing Jacksonville Center
05:58PM 34.1636 -80.8222 203° Southwest 454 522 35,900 -60 Descending Jacksonville Center
05:59PM 34.0458 -80.8800 202° Southwest 454 522 35,900  Level Jacksonville Center
06:00PM 33.9297 -80.9378 202° Southwest 454 522 35,900  Level Jacksonville Center
06:01PM 33.8117 -80.9953 202° Southwest 454 522 35,900  Level Jacksonville Center
06:02PM 33.6978 -81.0528 203° Southwest 449 517 35,900 -60 Level Jacksonville Center
06:03PM 33.5942 -81.1022 202° Southwest 454 522 35,800 -960 Descending Jacksonville Center
06:04PM 33.4761 -81.1594 202° Southwest 449 517 34,000 -960 Descending Jacksonville Center
06:05PM 33.3600 -81.2164 202° Southwest 449 517 33,900 -60 Descending Jacksonville Center
06:06PM 33.2436 -81.2708 201° Southwest 449 517 33,900  Level Jacksonville Center
06:07PM 33.1256 -81.3275 202° Southwest 449 517 33,900  Level Jacksonville Center
06:08PM 33.0133 -81.3814 202° Southwest 449 517 33,900  Level Jacksonville Center
06:09PM 32.8992 -81.4353 202° Southwest 449 517 33,900  Level Jacksonville Center
06:10PM 32.7831 -81.4917 202° Southwest 449 517 33,900  Level Jacksonville Center
06:11PM 32.6606 -81.5528 203° Southwest 449 517 34,000  Climbing Jacksonville Center
06:12PM 32.5461 -81.6061 201° Southwest 455 524 34,000  Level Jacksonville Center
06:13PM 32.4403 -81.6569 202° Southwest 452 520 34,000  Level Jacksonville Center
06:14PM 32.3094 -81.7178 201° Southwest 452 520 34,000  Level Jacksonville Center
06:15PM 32.2075 -81.7656 202° Southwest 452 520 34,000  Level Jacksonville Center
06:16PM 32.0786 -81.8261 202° Southwest 452 520 34,000  Level Jacksonville Center
06:17PM 31.9642 -81.8786 201° Southwest 447 514 34,000  Level Jacksonville Center
06:18PM 31.8581 -81.9314 203° Southwest 447 514 34,000  Level Jacksonville Center
06:19PM 31.7311 -81.9911 202° Southwest 453 521 34,000 -60 Level Jacksonville Center
06:20PM 31.6144 -82.0436 201° Southwest 453 521 33,900 -60 Descending Jacksonville Center
06:21PM 31.5000 -82.0983 202° Southwest 453 521 33,900  Level Jacksonville Center
06:22PM 31.3836 -82.1528 202° Southwest 448 516 33,900  Level Jacksonville Center
06:23PM 31.2647 -82.1975 198° South 448 516 33,900  Level Jacksonville Center
06:24PM 31.1375 -82.2081 184° South 448 516 33,900  Level Jacksonville Center
06:25PM 31.0081 -82.2189 184° South 454 522 33,900  Level Jacksonville Center
06:26PM 30.8808 -82.2317 185° South 467 537 33,900  Level Jacksonville Center
06:27PM 30.7556 -82.2447 185° South 462 532 33,900  Level Jacksonville Center
06:28PM 30.6303 -82.2575 185° South 457 526 33,900  Level Jacksonville Center
06:29PM 30.5050 -82.2658 183° South 462 532 33,900  Level Jacksonville Center
06:30PM 30.3778 -82.2786 185° South 469 540 33,900  Level Jacksonville Center
06:31PM 30.2525 -82.2889 184° South 459 528 33,900  Level Jacksonville Center
06:32PM 30.1253 -82.3019 185° South 464 534 33,900  Level Jacksonville Center
06:33PM 30.0106 -82.3192 187° South 464 534 33,900 -900 Level Jacksonville Center
06:34PM 29.8853 -82.3297 184° South 464 534 32,100 -2,100 Descending Jacksonville Center
06:35PM 29.7497 -82.3375 183° South 459 528 29,800 -2,100 Descending Jacksonville Center
06:36PM 29.6411 -82.3525 187° South 459 528 28,000 -1,980 Descending Jacksonville Center
06:37PM 29.5181 -82.3508 179° South 448 516 25,900 -2,040 Descending Jacksonville Center
06:38PM 29.4031 -82.3372 174° South 436 502 24,000 -1,920 Descending Jacksonville Center
06:39PM 29.2903 -82.3258 175° South 418 481 22,100 -1,860 Descending Jacksonville Center
06:40PM 29.1839 -82.3075 171° South 407 468 20,300 -1,800 Descending Jacksonville Center
06:41PM 29.0814 -82.2986 176° South 389 448 18,600 -1,740 Descending Jacksonville Center
06:42PM 28.9792 -82.2850 173° South 377 434 16,900 -1,680 Descending Jacksonville Center
06:43PM 28.8850 -82.2736 174° South 359 413 15,300 -1,440 Descending Jacksonville Center
06:46PM 28.6333 -82.2500 175° South 341 392 12,000 -1,500 Descending Tampa TRACON
06:47PM 28.5500 -82.2667 190° South 320 368 10,100 -1,020 Descending Tampa TRACON
06:48PM 28.5000 -82.3500 236° Southwest 299 344 10,000 -60 Descending Tampa TRACON
06:49PM 28.4833 -82.4333 257° West 297 342 10,000 -420 Level Tampa TRACON
06:50PM 28.4667 -82.5167 257° West 281 323 9,200 -900 Descending Tampa TRACON
06:51PM 28.4500 -82.6000 257° West 277 319 8,200 -1,020 Descending Tampa TRACON
06:52PM 28.4167 -82.6833 246° West 278 320 7,300 -1,020 Descending Tampa TRACON
06:53PM 28.3500 -82.7167 204° Southwest 287 330 6,300 -660 Descending Tampa TRACON
06:54PM 28.2833 -82.7333 192° South 265 305 6,000 -360 Descending Tampa TRACON
06:55PM 28.2000 -82.7667 199° South 257 296 5,600 -720 Descending Tampa TRACON
06:56PM 28.1333 -82.7833 192° South 248 285 4,600 -1,020 Descending Tampa TRACON
06:57PM 28.0833 -82.8000 196° South 219 252 3,700 -1,020 Descending Tampa TRACON
06:58PM 28.0333 -82.8000 180° South 189 217 2,700 -960 Descending Tampa TRACON
06:59PM 27.9833 -82.8000 180° South 171 197 1,800 -600 Descending Tampa TRACON
07:00PM 27.9333 -82.7833 164° South 162 186 1,600 -120 Descending Tampa TRACON
07:01PM 27.8833 -82.7667 164° South 159 183 1,600 -300 Level Tampa TRACON
07:02PM 27.8667 -82.7333 119° Southeast 162 186 1,000 -600 Descending Tampa TRACON
07:03PM 27.8833 -82.7000 60° Northeast 136 157 400 -600 Descending Tampa TRACON
07:05PM 27.9100 -82.6875 72° East  Level Estimated
07:12PM 27.9100 -82.6875 310° West  Level Estimated